Washington, DC (56965)

10:52 PM EST on January 29, 2015 (GMT -0500)
DCNet Hoover Building Washington DC | Change Station
CLOSE
Current Station
Personal Weather Station
Location: Washington, DC
Elevation: 231 ft
Nearby Weather Stations

Elev 231 ft 38.89 °N, 77.03 °W | Updated 37 minutes ago

Overcast
Overcast
38 °F
Feels Like 33 °F
N
7
Wind Variable Wind from South
Gusts 0.0 mph

Today
High -- | Low -- °F
--% Chance of Precip.
Yesterday
High -- | Low -- °F
Precip. -- in
7:17 AM 5:25 PM
Waxing Gibbous, 79% visible
Pressure 29.97 in
Visibility 10.0 miles
Clouds Mostly Cloudy 7000 ft
Overcast 13000 ft
Windchill 33 °F
Dew Point 22 °F
Humidity 52%
Rainfall -999.00 in
Snow Depth Not available.
UV 0 out of 12
Pollen Not available.
Air Quality Not available.
Flu Activity Not available.
METAR KDCA 300252Z 19011KT 10SM BKN070 OVC130 04/M06 A2997 RMK AO2 SLP149 T00391056 58034

More Conditions Fewer Conditions

Pressure 29.97 in
Visibility 10.0 miles
Clouds Mostly Cloudy 7000 ft
Overcast 13000 ft
Windchill 33 °F
Dew Point 22 °F
Humidity 52%
Rainfall -999.00 in
Snow Depth Not available.
UV 0 out of 12
Pollen Not available.
Air Quality Not available.
Flu Activity Not available.
METAR KDCA 300252Z 19011KT 10SM BKN070 OVC130 04/M06 A2997 RMK AO2 SLP149 T00391056 58034

More Conditions Fewer Conditions

10-Day Weather Forecast

Almanac

Astronomy

Jan. 29, 2015 Rise Set
Actual Time
Civil Twilight
Nautical Twilight
Astronomical Twilight
Moon
Length of Visible Light
Length of Day
Tomorrow will be .
, % of the Moon is Illuminated

Today's Extremes

State Highs State Lows

Community

WunderPhotos

Upload Photos

1,791,702 photos uploaded!

WunderBlogs® & News

Nearby

Air Quality

  Air Quality AQ Index Pollutant
Not available.

Snow Depth

Station Depth Elevation

Earthquake Activity

City Distance Mag. Time & Date
Minimum magnitude displayed is 2.5.

Coastal Water Temperatures

Place Temperature

Nearby Weather Stations